Time;durP1;ratioP1;P1;durP2;ratioP2;P2;SDS_P1;SDS_P2;PMS_P1;PMS_P2;Temp;Humidity;BMP_temperature;BMP_pressure;BME280_temperature;BME280_humidity;BME280_pressure;Samples;Min_cycle;Max_cycle;Signal;HPM_P1;HPM_P2
2023/06/20 00:01:15;;;;;;;14.70;13.20;;;23.90;99.90;;;;;;5073309;28;20418;-80
2023/06/20 00:03:40;;;;;;;18.07;14.47;;;23.80;99.90;;;;;;5072365;28;20516;-80
2023/06/20 00:06:06;;;;;;;14.73;13.33;;;23.70;99.90;;;;;;5055506;28;20175;-80
2023/06/20 00:08:32;;;;;;;15.27;13.77;;;23.70;99.90;;;;;;5073376;28;20292;-80
2023/06/20 00:10:57;;;;;;;14.90;13.37;;;23.60;99.90;;;;;;5056054;28;20188;-80
2023/06/20 00:13:23;;;;;;;19.63;15.73;;;23.60;99.90;;;;;;5073138;28;20176;-79
2023/06/20 00:15:49;;;;;;;15.63;13.20;;;23.50;99.90;;;;;;5072350;28;20432;-80
2023/06/20 00:18:17;;;;;;;15.40;13.90;;;23.50;99.90;;;;;;5072937;28;20512;-80
2023/06/20 00:20:46;;;;;;;16.87;14.57;;;23.50;99.90;;;;;;5072340;28;20408;-80
2023/06/20 00:23:12;;;;;;;15.90;14.20;;;23.50;99.90;;;;;;5055154;28;20768;-80
2023/06/20 00:25:37;;;;;;;16.33;14.63;;;23.40;99.90;;;;;;5072409;28;20458;-80
2023/06/20 00:28:03;;;;;;;15.97;14.27;;;23.40;99.90;;;;;;5073640;28;20186;-80
2023/06/20 00:30:29;;;;;;;15.33;13.93;;;23.40;99.90;;;;;;5055381;28;20203;-80
2023/06/20 00:32:58;;;;;;;15.87;14.27;;;23.40;99.90;;;;;;5073278;28;20562;-80
2023/06/20 00:35:25;;;;;;;15.47;13.87;;;23.30;99.90;;;;;;5073544;28;20198;-80
2023/06/20 00:37:51;;;;;;;15.70;14.00;;;23.30;99.90;;;;;;5070820;28;20417;-80
2023/06/20 00:40:16;;;;;;;16.77;15.03;;;23.30;99.90;;;;;;5071816;28;20811;-80
2023/06/20 00:42:42;;;;;;;15.10;13.50;;;23.30;99.90;;;;;;5072417;28;20313;-80
2023/06/20 00:45:30;;;;;;;15.60;14.10;;;23.20;99.90;;;;;;5055411;28;20210;-80
2023/06/20 00:47:58;;;;;;;16.03;14.43;;;23.20;99.90;;;;;;5072739;28;20195;-79
2023/06/20 00:50:27;;;;;;;16.80;14.70;;;23.20;99.90;;;;;;5072932;28;20439;-80
2023/06/20 00:52:56;;;;;;;16.60;15.00;;;23.20;99.90;;;;;;5069220;28;20426;-80
2023/06/20 00:55:22;;;;;;;17.20;15.40;;;23.10;99.90;;;;;;5070318;28;20466;-80
2023/06/20 00:57:48;;;;;;;16.77;15.07;;;23.10;99.90;;;;;;5052030;28;21040;-80
2023/06/20 01:00:14;;;;;;;16.40;14.80;;;23.10;99.90;;;;;;5070085;28;20229;-80
2023/06/20 01:02:46;;;;;;;16.90;15.10;;;23.00;99.90;;;;;;5069802;28;20723;-80
2023/06/20 01:05:16;;;;;;;16.40;14.70;;;23.00;99.90;;;;;;5070193;28;20443;-80
2023/06/20 01:08:12;;;;;;;16.00;14.40;;;23.00;99.90;;;;;;5051282;28;20874;-80
2023/06/20 01:10:43;;;;;;;17.60;15.77;;;22.90;99.90;;;;;;5069761;28;20584;-80
2023/06/20 01:13:22;;;;;;;21.10;15.60;;;22.90;99.90;;;;;;5051172;28;20912;-80
2023/06/20 01:15:54;;;;;;;17.57;14.97;;;22.80;99.90;;;;;;5070187;28;20462;-80
2023/06/20 01:18:43;;;;;;;18.73;15.27;;;22.80;99.90;;;;;;5050916;28;20789;-80
2023/06/20 01:21:15;;;;;;;16.60;14.90;;;22.70;99.90;;;;;;5069645;28;20404;-80
2023/06/20 01:23:48;;;;;;;16.87;15.07;;;22.70;99.90;;;;;;5051438;28;20406;-80
2023/06/20 01:26:24;;;;;;;17.10;15.30;;;22.70;99.90;;;;;;5051207;28;20430;-80
2023/06/20 01:28:56;;;;;;;18.97;14.90;;;22.60;99.90;;;;;;5068064;28;20457;-80
2023/06/20 01:31:30;;;;;;;21.83;16.57;;;22.60;99.90;;;;;;5069022;28;20975;-80
2023/06/20 01:34:18;;;;;;;18.00;16.23;;;22.60;99.90;;;;;;5069414;28;20784;-80
2023/06/20 01:36:52;;;;;;;18.03;16.20;;;22.50;99.90;;;;;;5049807;28;20861;-80
2023/06/20 01:39:23;;;;;;;18.43;16.27;;;22.50;99.90;;;;;;5069347;28;20426;-80
2023/06/20 01:41:50;;;;;;;18.83;16.80;;;22.50;99.90;;;;;;5069167;28;20410;-79
2023/06/20 01:44:19;;;;;;;17.90;16.07;;;22.50;99.90;;;;;;5068573;28;20468;-80
2023/06/20 01:46:46;;;;;;;19.00;17.00;;;22.40;99.90;;;;;;5069186;28;20970;-80
2023/06/20 01:49:13;;;;;;;17.73;15.83;;;22.40;99.90;;;;;;5050860;28;20444;-80
2023/06/20 01:51:40;;;;;;;20.53;18.33;;;22.40;99.90;;;;;;5068683;28;20422;-80
2023/06/20 01:54:07;;;;;;;20.77;18.53;;;22.40;99.90;;;;;;5068981;28;20436;-80
2023/06/20 01:56:34;;;;;;;20.37;17.83;;;22.40;99.90;;;;;;5050531;28;20788;-80
2023/06/20 01:59:02;;;;;;;20.67;18.43;;;22.40;99.90;;;;;;5050758;28;20965;-80
2023/06/20 02:01:29;;;;;;;20.17;18.07;;;22.50;99.90;;;;;;5068747;28;20413;-80
2023/06/20 02:03:56;;;;;;;21.27;18.80;;;22.50;99.90;;;;;;5066827;28;20450;-80
2023/06/20 02:06:23;;;;;;;21.63;18.23;;;22.40;99.90;;;;;;5068627;28;20414;-80
2023/06/20 02:08:51;;;;;;;20.10;17.97;;;22.40;99.90;;;;;;5068875;28;20434;-80
2023/06/20 02:11:19;;;;;;;22.10;18.67;;;22.40;99.90;;;;;;5068351;28;20422;-80
2023/06/20 02:13:49;;;;;;;19.30;17.30;;;22.40;99.90;;;;;;5050257;28;20654;-81
2023/06/20 02:16:17;;;;;;;21.90;17.73;;;22.40;99.90;;;;;;5068363;28;20544;-80
2023/06/20 02:18:43;;;;;;;22.80;19.37;;;22.30;99.90;;;;;;5067955;28;20814;-80
2023/06/20 02:21:22;;;;;;;23.77;19.00;;;22.30;99.90;;;;;;5050430;28;20439;-81
2023/06/20 02:23:50;;;;;;;19.40;17.37;;;22.40;99.90;;;;;;5068195;28;20476;-80
2023/06/20 02:26:18;;;;;;;19.73;17.60;;;22.40;99.90;;;;;;5066618;28;20411;-80
2023/06/20 02:28:49;;;;;;;21.80;17.80;;;22.40;99.90;;;;;;5068209;28;20475;-80
2023/06/20 02:31:22;;;;;;;19.23;17.23;;;22.40;99.90;;;;;;5067810;28;20476;-80
2023/06/20 02:33:52;;;;;;;19.30;17.10;;;22.30;99.90;;;;;;5049693;28;20557;-80
2023/06/20 02:36:20;;;;;;;19.13;17.13;;;22.30;99.90;;;;;;5049657;28;20511;-80
2023/06/20 02:38:46;;;;;;;19.67;17.43;;;22.30;99.90;;;;;;5048811;28;20996;-80
2023/06/20 02:41:12;;;;;;;20.47;17.80;;;22.30;99.90;;;;;;5067649;28;20449;-80
2023/06/20 02:43:37;;;;;;;17.43;15.67;;;22.30;99.90;;;;;;5066890;28;20217;-80
2023/06/20 02:46:22;;;;;;;18.80;16.77;;;22.30;99.90;;;;;;5067901;28;20247;-80
2023/06/20 02:49:05;;;;;;;19.90;17.80;;;22.30;99.90;;;;;;5067649;28;20185;-80
2023/06/20 02:51:37;;;;;;;21.50;17.60;;;22.30;99.90;;;;;;5067789;28;20803;-80
2023/06/20 02:54:50;;;;;;;20.07;17.17;;;22.20;99.90;;;;;;5049699;28;20892;-80
2023/06/20 02:57:19;;;;;;;17.97;15.97;;;22.20;99.90;;;;;;5028205;28;21025;-81
2023/06/20 02:59:59;;;;;;;19.30;15.83;;;22.10;99.90;;;;;;5067529;28;20492;-80
2023/06/20 03:02:30;;;;;;;24.37;19.37;;;22.10;99.90;;;;;;5067241;28;20390;-80
2023/06/20 03:04:59;;;;;;;18.50;16.50;;;22.00;99.90;;;;;;5049747;28;20461;-80
2023/06/20 03:07:28;;;;;;;29.87;19.83;;;21.80;99.90;;;;;;5067303;28;20406;-80
2023/06/20 03:09:57;;;;;;;23.03;17.63;;;21.80;99.90;;;;;;5067684;28;20429;-80
2023/06/20 03:12:22;;;;;;;21.10;16.83;;;21.80;99.90;;;;;;5067207;28;20508;-80
2023/06/20 03:14:48;;;;;;;22.33;19.70;;;21.70;99.90;;;;;;5066963;28;20521;-80
2023/06/20 03:17:14;;;;;;;21.40;18.53;;;21.70;99.90;;;;;;5065764;28;20800;-80
2023/06/20 03:19:39;;;;;;;19.80;17.20;;;21.70;99.90;;;;;;5067589;28;20189;-80
2023/06/20 03:22:05;;;;;;;19.87;17.80;;;21.60;99.90;;;;;;5067177;28;20173;-80
2023/06/20 03:24:31;;;;;;;21.40;19.13;;;21.60;99.90;;;;;;5067317;28;20201;-80
2023/06/20 03:26:56;;;;;;;19.17;17.10;;;21.60;99.90;;;;;;5065656;28;20225;-80
2023/06/20 03:29:22;;;;;;;21.90;18.63;;;21.50;99.90;;;;;;5066119;28;20204;-80
2023/06/20 03:31:47;;;;;;;21.00;17.30;;;21.50;99.90;;;;;;5065819;28;20526;-80
2023/06/20 03:34:13;;;;;;;21.00;17.90;;;21.60;99.90;;;;;;5067292;28;20499;-80
2023/06/20 03:36:39;;;;;;;20.43;17.67;;;21.60;99.90;;;;;;5066850;28;20249;-80
2023/06/20 03:39:04;;;;;;;21.40;18.70;;;21.60;99.90;;;;;;5066315;28;20801;-80
2023/06/20 03:41:30;;;;;;;24.10;19.67;;;21.50;99.90;;;;;;5067658;28;20460;-80
2023/06/20 03:43:55;;;;;;;20.93;17.83;;;21.50;99.90;;;;;;5048396;28;20236;-80
2023/06/20 03:46:21;;;;;;;22.03;18.70;;;21.50;99.90;;;;;;5048945;28;20258;-80
2023/06/20 03:48:47;;;;;;;21.10;18.80;;;21.50;99.90;;;;;;5047902;28;20661;-80
2023/06/20 03:51:12;;;;;;;20.90;18.53;;;21.50;99.90;;;;;;5048832;28;20697;-80
2023/06/20 03:53:38;;;;;;;21.03;18.63;;;21.60;99.90;;;;;;5065711;28;20208;-80
2023/06/20 03:56:04;;;;;;;22.47;18.93;;;21.50;99.90;;;;;;5049157;28;20220;-80
2023/06/20 03:58:29;;;;;;;22.53;19.60;;;21.50;99.90;;;;;;5066431;28;20736;-80
2023/06/20 04:00:56;;;;;;;20.80;18.60;;;21.50;99.90;;;;;;5064563;28;20181;-80
2023/06/20 04:03:22;;;;;;;20.73;18.20;;;21.60;99.90;;;;;;5066286;28;20169;-80
2023/06/20 04:05:47;;;;;;;27.93;19.30;;;21.60;99.90;;;;;;5065702;28;20797;-80
2023/06/20 04:08:13;;;;;;;21.93;18.30;;;21.70;99.90;;;;;;5065118;28;20274;-80
2023/06/20 04:10:39;;;;;;;22.13;19.77;;;21.70;99.90;;;;;;5066785;28;20201;-80
2023/06/20 04:13:04;;;;;;;20.50;18.27;;;21.80;99.90;;;;;;5066495;28;20550;-80
2023/06/20 04:15:30;;;;;;;22.60;18.67;;;21.80;99.90;;;;;;5048992;28;20232;-80
2023/06/20 04:17:56;;;;;;;21.17;18.43;;;21.90;99.90;;;;;;5066402;28;20230;-80
2023/06/20 04:20:21;;;;;;;25.67;18.53;;;22.00;99.90;;;;;;5066867;28;20197;-80
2023/06/20 04:22:47;;;;;;;21.17;18.90;;;22.00;99.90;;;;;;5048238;28;20242;-80
2023/06/20 04:25:14;;;;;;;21.10;19.00;;;22.10;99.90;;;;;;5066537;28;20632;-79
2023/06/20 04:27:40;;;;;;;24.23;20.77;;;22.20;99.90;;;;;;5076430;28;20180;-80
2023/06/20 04:30:06;;;;;;;21.57;18.87;;;22.20;99.90;;;;;;5080713;28;20456;-80
2023/06/20 04:32:32;;;;;;;23.83;20.80;;;22.30;99.90;;;;;;5070308;28;20180;-80
2023/06/20 04:34:58;;;;;;;21.20;18.10;;;22.30;99.90;;;;;;5090632;28;20964;-80
2023/06/20 04:37:24;;;;;;;19.73;17.63;;;22.30;99.90;;;;;;5086261;28;20471;-80
2023/06/20 04:39:49;;;;;;;23.70;20.27;;;22.30;99.90;;;;;;5070264;28;20239;-79
2023/06/20 04:42:15;;;;;;;21.40;19.20;;;22.40;99.90;;;;;;5089032;28;20728;-80
2023/06/20 04:44:44;;;;;;;22.97;19.83;;;22.40;99.90;;;;;;5089337;28;20230;-80
2023/06/20 04:47:12;;;;;;;22.37;19.90;;;22.50;99.90;;;;;;5079664;28;20574;-80
2023/06/20 04:49:40;;;;;;;21.90;19.10;;;22.50;99.90;;;;;;5089820;28;20456;-80
2023/06/20 04:52:07;;;;;;;23.80;19.77;;;22.70;99.90;;;;;;5070575;28;20428;-80
2023/06/20 04:54:32;;;;;;;22.60;20.13;;;22.80;99.90;;;;;;5090141;28;20498;-80
2023/06/20 04:56:58;;;;;;;25.20;21.20;;;22.80;99.90;;;;;;5088893;28;20452;-80
2023/06/20 04:59:24;;;;;;;24.27;20.20;;;22.90;99.90;;;;;;5069177;28;20327;-80
2023/06/20 05:01:51;;;;;;;22.37;20.07;;;23.00;99.90;;;;;;5070452;28;20200;-80
2023/06/20 05:04:17;;;;;;;25.87;20.73;;;23.10;99.90;;;;;;5070648;28;20205;-80
2023/06/20 05:06:44;;;;;;;22.90;20.60;;;23.20;99.90;;;;;;5066007;28;20574;-80
2023/06/20 05:09:09;;;;;;;24.10;21.30;;;23.20;99.90;;;;;;5068713;28;20916;-80
2023/06/20 05:11:36;;;;;;;24.60;22.10;;;23.30;99.90;;;;;;5069183;28;20411;-80
2023/06/20 05:14:01;;;;;;;29.07;22.33;;;23.30;99.90;;;;;;5069302;28;20215;-80
2023/06/20 05:16:27;;;;;;;22.07;19.60;;;23.40;99.90;;;;;;5067826;28;20478;-80
2023/06/20 05:18:53;;;;;;;24.90;22.30;;;23.50;99.90;;;;;;5084689;28;20663;-80
2023/06/20 05:21:18;;;;;;;25.30;22.03;;;23.60;99.90;;;;;;5084479;28;20181;-79
2023/06/20 05:23:44;;;;;;;22.23;19.83;;;23.70;99.90;;;;;;5067719;28;20683;-79
2023/06/20 05:26:10;;;;;;;25.37;21.47;;;23.70;99.90;;;;;;5086484;28;20198;-79
2023/06/20 05:28:37;;;;;;;23.90;20.40;;;23.80;99.90;;;;;;5087150;28;20233;-79
2023/06/20 05:31:03;;;;;;;25.97;20.73;;;23.90;99.90;;;;;;5085304;28;20423;-79
2023/06/20 05:33:29;;;;;;;26.00;21.37;;;23.90;99.90;;;;;;5083314;28;20444;-79
2023/06/20 05:35:54;;;;;;;20.97;18.83;;;24.00;99.90;;;;;;5067349;28;20584;-79
2023/06/20 05:38:20;;;;;;;21.63;19.43;;;24.10;99.90;;;;;;5086317;28;20423;-78
2023/06/20 05:40:46;;;;;;;22.17;19.97;;;24.10;99.90;;;;;;5068633;28;20457;-79
2023/06/20 05:43:12;;;;;;;25.53;21.53;;;24.20;99.90;;;;;;5084887;28;20234;-79
2023/06/20 05:45:37;;;;;;;23.80;20.67;;;24.20;99.90;;;;;;5086598;28;20440;-79
2023/06/20 05:48:03;;;;;;;23.03;20.63;;;24.30;99.90;;;;;;5078457;28;20548;-79
2023/06/20 05:50:30;;;;;;;24.30;21.03;;;24.30;99.90;;;;;;5068818;28;20207;-79
2023/06/20 05:52:56;;;;;;;30.70;21.20;;;24.30;99.90;;;;;;5067725;28;20580;-79
2023/06/20 05:55:22;;;;;;;20.83;18.73;;;24.30;99.90;;;;;;5068811;28;20534;-79
2023/06/20 05:57:48;;;;;;;21.83;19.00;;;24.40;99.90;;;;;;5065878;28;20303;-80
2023/06/20 06:00:14;;;;;;;24.03;19.40;;;24.50;99.90;;;;;;5079423;28;20218;-79
2023/06/20 06:02:40;;;;;;;18.00;16.30;;;24.60;99.90;;;;;;5084431;28;20263;-79
2023/06/20 06:05:06;;;;;;;22.43;19.53;;;24.70;99.90;;;;;;5064279;28;20738;-80
2023/06/20 06:07:32;;;;;;;20.20;18.20;;;24.80;99.90;;;;;;5083745;28;20514;-79
2023/06/20 06:09:57;;;;;;;20.33;18.27;;;24.90;99.90;;;;;;5065329;28;20433;-79
2023/06/20 06:12:23;;;;;;;21.07;18.80;;;25.00;99.90;;;;;;5083523;28;20706;-80
2023/06/20 06:14:51;;;;;;;20.67;17.90;;;25.00;99.90;;;;;;5064681;28;20284;-79
2023/06/20 06:17:17;;;;;;;19.80;17.27;;;25.10;99.90;;;;;;5083275;28;20278;-79
2023/06/20 06:19:43;;;;;;;19.80;17.70;;;25.20;99.90;;;;;;5083510;28;20478;-79
2023/06/20 06:22:09;;;;;;;19.93;17.93;;;25.30;99.90;;;;;;5064459;28;20452;-79
2023/06/20 06:24:35;;;;;;;21.73;19.50;;;25.30;99.90;;;;;;5081828;28;20192;-79
2023/06/20 06:27:00;;;;;;;19.23;17.10;;;25.50;99.90;;;;;;5063662;28;20290;-80
2023/06/20 06:29:26;;;;;;;19.60;17.50;;;25.50;99.90;;;;;;5082482;28;20783;-79
2023/06/20 06:31:53;;;;;;;28.80;17.13;;;25.60;99.90;;;;;;5046773;28;20188;-79
2023/06/20 06:34:19;;;;;;;18.90;16.70;;;25.70;99.90;;;;;;5060676;28;20433;-80
2023/06/20 06:36:48;;;;;;;20.17;18.10;;;25.70;99.90;;;;;;5080489;28;20463;-79
2023/06/20 06:39:17;;;;;;;19.10;15.70;;;25.80;99.90;;;;;;5082458;28;20241;-79
2023/06/20 06:41:46;;;;;;;18.50;16.33;;;25.90;99.90;;;;;;5062290;28;20428;-79
2023/06/20 06:44:12;;;;;;;17.43;15.83;;;26.00;99.90;;;;;;5063135;28;20512;-79
2023/06/20 06:46:37;;;;;;;17.43;15.73;;;26.10;99.90;;;;;;5080148;28;20483;-80
2023/06/20 06:49:03;;;;;;;15.97;14.50;;;26.10;99.90;;;;;;5077842;28;20592;-79
2023/06/20 06:51:29;;;;;;;18.83;15.07;;;26.20;99.90;;;;;;5064588;28;20672;-79
2023/06/20 06:53:55;;;;;;;17.33;15.00;;;26.30;99.90;;;;;;5082669;28;20192;-80
2023/06/20 06:56:20;;;;;;;17.37;15.57;;;26.30;99.90;;;;;;5063419;28;20669;-79
2023/06/20 06:58:46;;;;;;;15.87;14.47;;;26.40;99.90;;;;;;5080371;28;20687;-79
2023/06/20 07:01:12;;;;;;;17.10;14.60;;;26.40;99.90;;;;;;5064741;28;20184;-79
2023/06/20 07:03:37;;;;;;;15.50;14.10;;;26.50;99.90;;;;;;5085215;28;20263;-79
2023/06/20 07:06:03;;;;;;;14.20;12.30;;;26.60;99.90;;;;;;5064643;28;20598;-79
2023/06/20 07:08:29;;;;;;;15.50;13.40;;;26.70;99.90;;;;;;5066081;28;20177;-80
2023/06/20 07:10:55;;;;;;;16.30;13.50;;;26.80;99.90;;;;;;5070669;28;20417;-80
2023/06/20 07:13:23;;;;;;;14.57;13.07;;;26.90;99.90;;;;;;5066282;28;21160;-80
2023/06/20 07:15:49;;;;;;;13.40;12.20;;;26.90;99.90;;;;;;5065455;28;20686;-80
2023/06/20 07:18:14;;;;;;;14.07;12.67;;;27.00;99.90;;;;;;5083369;28;20418;-80
2023/06/20 07:20:40;;;;;;;17.77;13.37;;;27.00;99.90;;;;;;5064414;28;20527;-80
2023/06/20 07:23:06;;;;;;;13.70;12.30;;;27.10;99.90;;;;;;5081972;28;20215;-80
2023/06/20 07:25:31;;;;;;;12.73;11.63;;;27.20;99.90;;;;;;5063728;28;20295;-80
2023/06/20 07:27:57;;;;;;;12.90;11.63;;;27.20;99.90;;;;;;5080850;28;20196;-80
2023/06/20 07:30:23;;;;;;;13.77;9.77;;;27.30;99.90;;;;;;5063431;28;20209;-80
2023/06/20 07:32:49;;;;;;;12.07;10.80;;;27.40;99.90;;;;;;5062788;28;20680;-80
2023/06/20 07:35:15;;;;;;;14.80;11.43;;;27.50;99.90;;;;;;5061100;28;20289;-81
2023/06/20 07:37:41;;;;;;;14.00;12.60;;;27.50;99.90;;;;;;5073392;28;20703;-80
2023/06/20 07:40:07;;;;;;;14.40;11.37;;;27.60;99.90;;;;;;5073285;28;20471;-80
2023/06/20 07:42:34;;;;;;;13.40;11.80;;;27.60;99.90;;;;;;5065490;28;20180;-80
2023/06/20 07:44:59;;;;;;;11.73;10.53;;;27.70;99.90;;;;;;5064373;28;20869;-80
2023/06/20 07:47:25;;;;;;;12.70;10.60;;;27.70;99.90;;;;;;5065408;28;20420;-80
2023/06/20 07:49:51;;;;;;;13.40;11.80;;;27.90;99.90;;;;;;5067615;28;20257;-80
2023/06/20 07:52:16;;;;;;;12.77;11.57;;;27.90;99.90;;;;;;5085471;28;20663;-80
2023/06/20 07:54:42;;;;;;;15.40;11.37;;;27.90;99.90;;;;;;5063736;28;20677;-80
2023/06/20 07:57:08;;;;;;;12.77;11.47;;;28.00;99.90;;;;;;5082521;28;20297;-80
2023/06/20 07:59:33;;;;;;;17.40;12.77;;;28.10;99.90;;;;;;5081958;28;20212;-80
2023/06/20 08:01:59;;;;;;;14.90;13.00;;;28.10;99.90;;;;;;5084887;28;20217;-80
2023/06/20 08:04:25;;;;;;;14.70;13.20;;;28.20;99.90;;;;;;5069560;28;20187;-80
2023/06/20 08:06:51;;;;;;;14.20;12.37;;;28.20;99.90;;;;;;5082040;28;20190;-79
2023/06/20 08:09:16;;;;;;;15.10;13.30;;;28.20;99.90;;;;;;5087880;28;20460;-80
2023/06/20 08:11:42;;;;;;;13.03;11.73;;;28.30;99.90;;;;;;5088959;28;20180;-80
2023/06/20 08:14:08;;;;;;;15.77;13.10;;;28.30;99.90;;;;;;5084423;28;20211;-81
2023/06/20 08:16:33;;;;;;;14.90;13.60;;;28.40;99.90;;;;;;5081219;28;20245;-80
2023/06/20 08:18:59;;;;;;;14.97;13.40;;;28.50;99.90;;;;;;5066481;28;20213;-80
2023/06/20 08:21:25;;;;;;;17.53;13.93;;;28.50;99.90;;;;;;5066428;28;20696;-80
2023/06/20 08:23:50;;;;;;;15.17;13.13;;;28.50;99.90;;;;;;5065580;28;20210;-81
2023/06/20 08:26:16;;;;;;;14.97;13.30;;;28.50;99.90;;;;;;5085007;28;20428;-80
2023/06/20 08:28:42;;;;;;;20.90;13.53;;;28.60;99.90;;;;;;5068883;28;20185;-80
2023/06/20 08:31:08;;;;;;;14.00;12.30;;;28.60;99.90;;;;;;5086749;28;20208;-80
2023/06/20 08:33:33;;;;;;;14.07;12.70;;;28.80;99.90;;;;;;5064061;28;20567;-81
2023/06/20 08:35:59;;;;;;;13.63;12.30;;;28.80;99.90;;;;;;5087211;28;20190;-80
2023/06/20 08:38:25;;;;;;;15.63;13.90;;;28.90;99.90;;;;;;5086872;28;20178;-80
2023/06/20 08:40:50;;;;;;;14.10;12.80;;;28.90;99.90;;;;;;5063250;28;20266;-79
2023/06/20 08:43:16;;;;;;;14.50;12.63;;;29.10;99.90;;;;;;5064348;28;20473;-80
2023/06/20 08:45:43;;;;;;;14.80;13.33;;;29.10;99.90;;;;;;5044862;28;20537;-80
2023/06/20 08:48:09;;;;;;;13.63;12.43;;;29.20;99.90;;;;;;5061256;28;20252;-80
2023/06/20 08:50:36;;;;;;;14.93;13.40;;;29.30;99.90;;;;;;5086307;28;20451;-80
2023/06/20 08:53:06;;;;;;;13.73;12.33;;;29.40;99.90;;;;;;5086794;28;20420;-80
2023/06/20 08:55:34;;;;;;;13.50;12.20;;;29.40;99.90;;;;;;5086772;28;20497;-80
2023/06/20 08:58:00;;;;;;;13.70;12.50;;;29.50;99.90;;;;;;5086740;28;20464;-80
2023/06/20 09:00:26;;;;;;;13.83;12.63;;;29.70;99.90;;;;;;5089638;28;20451;-81
2023/06/20 09:02:54;;;;;;;13.07;11.67;;;29.80;99.90;;;;;;5069422;28;20187;-80
2023/06/20 09:05:21;;;;;;;13.63;11.90;;;29.80;99.90;;;;;;5053186;28;20208;-80
2023/06/20 09:07:47;;;;;;;13.33;12.03;;;29.90;99.90;;;;;;5064477;28;20424;-80
2023/06/20 09:10:18;;;;;;;12.80;11.60;;;29.90;99.90;;;;;;5083459;28;20477;-81
2023/06/20 09:12:51;;;;;;;13.70;12.30;;;30.00;99.90;;;;;;5082895;28;20424;-80
2023/06/20 09:15:19;;;;;;;15.13;13.60;;;29.90;99.90;;;;;;5084370;28;20444;-80
2023/06/20 09:17:52;;;;;;;18.53;12.07;;;29.90;99.90;;;;;;5065565;28;20472;-81
2023/06/20 09:20:19;;;;;;;13.87;12.50;;;30.00;99.90;;;;;;5078802;28;20437;-81
2023/06/20 09:22:45;;;;;;;13.70;12.40;;;30.10;99.90;;;;;;5065331;28;21084;-80
2023/06/20 09:25:12;;;;;;;14.70;13.27;;;30.20;99.90;;;;;;5083531;28;20952;-80
2023/06/20 09:27:41;;;;;;;16.20;12.93;;;30.30;99.90;;;;;;5081066;28;20676;-81
2023/06/20 09:30:08;;;;;;;12.60;11.50;;;30.30;99.90;;;;;;5083468;28;20522;-80
2023/06/20 09:32:42;;;;;;;18.73;12.10;;;30.20;99.90;;;;;;5085358;28;20404;-81
2023/06/20 09:35:18;;;;;;;13.10;11.90;;;30.30;99.90;;;;;;5082857;28;20447;-80
2023/06/20 09:37:51;;;;;;;15.10;13.50;;;30.40;99.90;;;;;;5065414;28;20833;-80
2023/06/20 09:40:18;;;;;;;12.83;11.73;;;30.50;99.90;;;;;;5084494;28;20482;-81
2023/06/20 09:42:45;;;;;;;14.43;13.17;;;30.60;99.90;;;;;;5064720;28;20456;-80
2023/06/20 09:45:14;;;;;;;13.17;11.87;;;30.70;99.90;;;;;;5062029;28;20451;-80
2023/06/20 09:47:40;;;;;;;14.10;12.53;;;30.70;99.60;;;;;;5064277;28;21055;-81
2023/06/20 09:50:19;;;;;;;13.47;12.13;;;30.70;99.30;;;;;;5064196;28;20956;-80
2023/06/20 09:53:00;;;;;;;13.30;11.90;;;30.70;99.40;;;;;;5067047;28;20428;-80
2023/06/20 09:55:26;;;;;;;12.60;11.50;;;30.80;99.40;;;;;;5064924;28;20954;-80
2023/06/20 09:57:58;;;;;;;13.77;11.97;;;30.80;99.00;;;;;;5066370;28;20526;-81
2023/06/20 10:00:26;;;;;;;12.10;10.90;;;30.80;98.90;;;;;;5082230;28;20482;-81
2023/06/20 10:02:53;;;;;;;12.23;11.20;;;30.90;98.90;;;;;;5083808;28;20459;-81
2023/06/20 10:05:20;;;;;;;12.67;11.57;;;30.80;98.30;;;;;;5065346;28;20536;-81
2023/06/20 10:07:48;;;;;;;12.23;11.13;;;30.90;98.70;;;;;;5082953;28;21028;-81
2023/06/20 10:10:15;;;;;;;16.17;11.13;;;30.90;98.20;;;;;;5067900;28;20763;-81
2023/06/20 10:12:44;;;;;;;11.37;10.03;;;31.00;98.00;;;;;;5063496;28;20972;-81
2023/06/20 10:15:11;;;;;;;12.57;11.47;;;31.10;98.30;;;;;;5083504;28;20788;-81
2023/06/20 10:17:41;;;;;;;13.90;11.50;;;31.20;97.80;;;;;;5064588;28;20468;-81
2023/06/20 10:20:22;;;;;;;13.50;12.30;;;31.20;97.40;;;;;;5064184;28;20437;-81
2023/06/20 10:22:49;;;;;;;13.20;11.87;;;31.20;96.90;;;;;;5083558;28;20819;-80
2023/06/20 10:25:16;;;;;;;12.10;11.00;;;31.30;96.70;;;;;;5085980;28;20797;-81
2023/06/20 10:28:02;;;;;;;11.90;10.87;;;31.30;96.90;;;;;;5083105;28;20421;-81
2023/06/20 10:30:46;;;;;;;13.97;12.77;;;31.50;96.40;;;;;;5065411;28;20732;-81
2023/06/20 10:33:13;;;;;;;12.07;10.90;;;31.60;96.30;;;;;;5083790;28;21307;-81
2023/06/20 10:35:48;;;;;;;12.23;11.23;;;31.70;96.40;;;;;;5078696;28;20449;-81
2023/06/20 10:38:13;;;;;;;13.53;11.33;;;31.70;96.40;;;;;;5077163;28;20456;-81
2023/06/20 10:40:40;;;;;;;12.70;11.40;;;31.70;96.40;;;;;;5079081;28;20492;-81
2023/06/20 10:43:15;;;;;;;11.93;10.90;;;31.80;96.60;;;;;;5064875;28;20583;-80
2023/06/20 10:45:57;;;;;;;13.40;12.20;;;31.80;96.20;;;;;;5061334;28;20571;-81
2023/06/20 10:48:24;;;;;;;11.87;10.87;;;31.80;95.90;;;;;;5061719;28;20887;-81
2023/06/20 10:50:51;;;;;;;12.30;11.10;;;31.70;95.80;;;;;;5076939;28;20452;-81
2023/06/20 10:53:18;;;;;;;12.23;11.30;;;31.80;95.80;;;;;;5100582;28;20801;-81
2023/06/20 10:55:43;;;;;;;12.53;11.43;;;31.80;95.60;;;;;;5085055;28;20490;-81
2023/06/20 10:58:10;;;;;;;11.97;10.77;;;31.70;95.50;;;;;;5084561;28;20840;-81
2023/06/20 11:00:36;;;;;;;13.13;11.77;;;31.50;95.40;;;;;;5083133;28;20292;-80
2023/06/20 11:03:02;;;;;;;13.43;10.73;;;31.50;95.40;;;;;;5081221;28;20492;-80
2023/06/20 11:05:29;;;;;;;13.00;11.70;;;31.50;95.50;;;;;;5081121;28;20204;-80
2023/06/20 11:08:00;;;;;;;12.83;11.53;;;31.60;95.10;;;;;;5081765;28;20249;-81
2023/06/20 11:10:29;;;;;;;11.63;10.50;;;31.70;95.00;;;;;;5080134;28;20473;-81
2023/06/20 11:12:57;;;;;;;12.23;11.13;;;31.80;94.80;;;;;;5079529;28;20925;-81
2023/06/20 11:15:34;;;;;;;15.57;11.70;;;31.80;94.70;;;;;;5079592;28;20453;-80
2023/06/20 11:18:02;;;;;;;11.87;10.87;;;31.80;94.60;;;;;;5076230;28;20543;-81
2023/06/20 11:20:28;;;;;;;12.17;10.63;;;31.90;94.50;;;;;;5065416;28;20453;-80
2023/06/20 11:22:56;;;;;;;11.97;10.87;;;31.90;93.20;;;;;;5064848;28;21136;-81
2023/06/20 11:25:26;;;;;;;13.50;12.10;;;32.00;94.10;;;;;;5063687;28;20457;-80
2023/06/20 11:27:52;;;;;;;13.13;11.90;;;32.10;93.40;;;;;;5068358;28;20432;-80
2023/06/20 11:30:26;;;;;;;12.27;11.07;;;32.10;93.60;;;;;;5065322;28;20846;-80
2023/06/20 11:33:01;;;;;;;12.10;11.03;;;32.20;93.50;;;;;;5063720;28;20417;-80
2023/06/20 11:35:46;;;;;;;11.90;10.90;;;32.20;93.40;;;;;;5080863;28;20697;-80
2023/06/20 11:38:18;;;;;;;11.93;11.03;;;32.20;93.60;;;;;;5059203;28;20544;-80
2023/06/20 11:40:48;;;;;;;14.43;12.10;;;32.20;93.60;;;;;;5063022;28;20434;-80
2023/06/20 11:43:27;;;;;;;13.10;12.00;;;32.20;93.10;;;;;;5075712;28;20522;-80
2023/06/20 11:45:59;;;;;;;13.30;12.20;;;32.10;93.50;;;;;;5051897;28;20610;-80
2023/06/20 11:48:26;;;;;;;13.00;11.80;;;32.10;93.40;;;;;;5061507;28;20410;-80
2023/06/20 11:50:57;;;;;;;11.67;10.77;;;32.10;93.70;;;;;;5077967;28;20793;-81
2023/06/20 11:53:42;;;;;;;11.77;10.77;;;32.10;93.60;;;;;;5053034;28;20417;-80
2023/06/20 11:56:11;;;;;;;12.07;10.87;;;32.30;93.10;;;;;;5063534;28;20825;-80
2023/06/20 11:58:42;;;;;;;12.60;11.40;;;32.30;93.20;;;;;;5065246;28;20982;-79
2023/06/20 12:01:13;;;;;;;13.13;11.93;;;32.30;93.50;;;;;;5082454;28;20436;-80
2023/06/20 12:03:41;;;;;;;11.80;10.80;;;32.40;91.60;;;;;;5051559;28;20503;-80
2023/06/20 12:06:29;;;;;;;14.70;10.27;;;32.50;91.30;;;;;;5049349;28;20870;-80
2023/06/20 12:09:04;;;;;;;11.90;10.80;;;32.60;90.10;;;;;;5079931;28;20453;-80
2023/06/20 12:11:30;;;;;;;12.00;10.87;;;32.60;88.60;;;;;;5064249;28;20436;-80
2023/06/20 12:13:56;;;;;;;12.03;11.03;;;32.60;90.30;;;;;;5079911;28;21063;-80
2023/06/20 12:16:23;;;;;;;11.50;10.57;;;32.60;90.40;;;;;;5058303;28;20993;-80
2023/06/20 12:18:53;;;;;;;12.60;11.40;;;32.70;90.20;;;;;;5042193;28;20877;-81
2023/06/20 12:21:19;;;;;;;12.97;11.83;;;32.80;90.50;;;;;;5072243;28;20416;-80
2023/06/20 12:23:46;;;;;;;12.07;11.07;;;32.90;89.90;;;;;;5079494;28;20443;-80
2023/06/20 12:26:13;;;;;;;11.73;10.80;;;32.90;90.10;;;;;;5080264;28;20428;-80
2023/06/20 12:28:42;;;;;;;11.90;10.87;;;32.90;90.50;;;;;;5056344;28;20443;-80
2023/06/20 12:31:11;;;;;;;11.87;10.77;;;32.80;90.80;;;;;;5043767;28;20471;-80
2023/06/20 12:33:38;;;;;;;12.23;11.13;;;32.80;90.50;;;;;;5054752;28;20494;-80